Schubert, Missouri
Current Conditions -  °F | °C
As of 4:21 PM on Sunday 25 Jan 2015 (Local Time) from KJEF Reporting Station
Overcast Overcast  
Wind Chill: 28°   Ceiling: 1500
Heat Index: 37°   Visibility: 10mi
Dew Point: 32°   Wind: 14mph
Humidity: 82%   Direction: 330°NNW
Pressure: 29.86"   Gusts: 24mph
Location:  38.5003°N, 92.1516°W
Report Text: KJEF 252221Z 33012G21KT 10SM OVC015 03/00 A2986 RMK AO2 PRESRR T00280000
Loading
Personal Weather Stations






























Interactive Weather Map New forecast layout! Learn more

10-Day Weather Forecast

Advertisements
Track Severe Weather on mobile